Time,TemperatureF,DewpointF,PressureIn,WindDirection,WindDirectionDegrees,WindSpeedMPH,WindSpeedGustMPH,Humidity,HourlyPrecipIn,Conditions,Clouds,dailyrainin,SoftwareType,DateUTC
2013-09-15 00:01:00,56.5,50.7,30.06,NNE,22,0.9,1.1,81,0.00,RA,,0.00,WeatherDisplay:10.37,2013-09-15 06:01:00,
2013-09-15 00:06:00,56.3,50.5,30.07,East,90,0.8,1.7,81,0.00,RA,,0.00,WeatherDisplay:10.37,2013-09-15 06:06:00,
2013-09-15 00:11:00,55.9,50.2,30.07,ENE,68,0.0,0.0,81,0.00,OVC,,0.00,WeatherDisplay:10.37,2013-09-15 06:11:00,
2013-09-15 00:16:00,55.8,50.4,30.07,East,90,0.0,0.0,82,0.00,OVC,,0.00,WeatherDisplay:10.37,2013-09-15 06:16:00,
2013-09-15 00:21:00,55.4,50.0,30.07,WNW,292,0.6,2.3,82,0.00,OVC,,0.00,WeatherDisplay:10.37,2013-09-15 06:21:00,
2013-09-15 00:26:00,55.2,50.1,30.07,ENE,68,1.0,2.3,83,0.00,OVC,,0.00,WeatherDisplay:10.37,2013-09-15 06:26:00,
2013-09-15 00:31:00,55.2,50.1,30.07,ENE,68,2.0,3.5,83,0.00,OVC,,0.00,WeatherDisplay:10.37,2013-09-15 06:31:00,
2013-09-15 00:36:00,55.0,49.9,30.07,NE,45,2.8,3.7,83,0.00,OVC,,0.00,WeatherDisplay:10.37,2013-09-15 06:36:00,
2013-09-15 00:44:00,54.9,49.8,30.08,NE,45,2.7,3.5,83,0.00,OVC,,0.00,WeatherDisplay:10.37,2013-09-15 06:44:00,
2013-09-15 00:49:00,54.9,50.2,30.08,East,90,2.0,4.6,84,0.00,OVC,,0.00,WeatherDisplay:10.37,2013-09-15 06:49:00,
2013-09-15 00:54:00,54.9,50.2,30.08,ESE,112,4.5,5.8,84,0.00,OVC,,0.00,WeatherDisplay:10.37,2013-09-15 06:54:00,
2013-09-15 00:59:00,54.9,50.2,30.08,NNE,22,5.4,5.8,84,0.00,OVC,,0.00,WeatherDisplay:10.37,2013-09-15 06:59:00,
2013-09-15 01:04:00,54.9,50.2,30.08,NNE,22,4.1,7.3,84,0.00,SCT,,0.00,WeatherDisplay:10.37,2013-09-15 07:04:00,
2013-09-15 01:09:00,54.7,50.0,30.08,NE,45,3.2,4.7,84,0.00,SCT,,0.00,WeatherDisplay:10.37,2013-09-15 07:09:00,
2013-09-15 01:14:00,54.3,49.6,30.08,NNE,22,4.6,5.8,84,0.00,SCT,,0.00,WeatherDisplay:10.37,2013-09-15 07:14:00,
2013-09-15 01:19:00,54.1,49.4,30.09,ENE,68,4.1,5.8,84,0.00,SCT,,0.00,WeatherDisplay:10.37,2013-09-15 07:19:00,
2013-09-15 01:24:00,54.0,49.3,30.09,ESE,112,2.6,3.5,84,0.00,SCT,,0.00,WeatherDisplay:10.37,2013-09-15 07:24:00,
2013-09-15 01:30:00,53.8,49.1,30.09,SE,135,1.0,4.6,84,0.00,SCT,,0.00,WeatherDisplay:10.37,2013-09-15 07:30:00,
2013-09-15 01:35:00,53.6,48.9,30.09,ESE,112,1.6,2.3,84,0.00,SCT,,0.00,WeatherDisplay:10.37,2013-09-15 07:35:00,
2013-09-15 01:40:00,53.4,49.0,30.09,NE,45,2.1,3.5,85,0.00,SCT,,0.00,WeatherDisplay:10.37,2013-09-15 07:40:00,
2013-09-15 01:45:00,53.2,48.8,30.09,NE,45,1.4,1.4,85,0.00,SCT,,0.00,WeatherDisplay:10.37,2013-09-15 07:45:00,
2013-09-15 01:50:00,53.1,49.0,30.09,North,360,2.2,3.5,86,0.00,SCT,,0.00,WeatherDisplay:10.37,2013-09-15 07:50:00,
2013-09-15 01:55:00,52.7,48.6,30.09,NNE,22,3.7,4.6,86,0.00,SCT,,0.00,WeatherDisplay:10.37,2013-09-15 07:55:00,
2013-09-15 02:00:00,52.5,48.7,30.09,NNE,22,3.0,3.5,87,0.00,SCT,,0.00,WeatherDisplay:10.37,2013-09-15 08:00:00,
2013-09-15 02:05:00,52.3,48.5,30.10,NE,45,1.8,3.5,87,0.00,CLR,,0.00,WeatherDisplay:10.37,2013-09-15 08:05:00,
2013-09-15 02:10:00,52.2,48.4,30.10,NE,45,4.0,5.8,87,0.00,CLR,,0.00,WeatherDisplay:10.37,2013-09-15 08:10:00,
2013-09-15 02:15:00,51.8,48.1,30.11,NE,45,3.5,4.6,87,0.00,CLR,,0.00,WeatherDisplay:10.37,2013-09-15 08:15:00,
2013-09-15 02:20:00,51.8,48.1,30.11,NE,45,4.2,8.1,87,0.00,CLR,,0.00,WeatherDisplay:10.37,2013-09-15 08:20:00,
2013-09-15 02:25:00,51.8,48.1,30.11,East,90,4.3,5.8,87,0.00,CLR,,0.00,WeatherDisplay:10.37,2013-09-15 08:25:00,
2013-09-15 02:30:00,51.6,47.9,30.11,NE,45,1.8,3.5,87,0.00,CLR,,0.00,WeatherDisplay:10.37,2013-09-15 08:30:00,
2013-09-15 02:35:00,51.4,47.7,30.11,ENE,68,3.7,5.8,87,0.00,CLR,,0.00,WeatherDisplay:10.37,2013-09-15 08:35:00,
2013-09-15 02:40:00,51.3,47.6,30.12,ESE,112,2.7,3.5,87,0.00,CLR,,0.00,WeatherDisplay:10.37,2013-09-15 08:40:00,
2013-09-15 02:45:00,51.1,47.4,30.12,NE,45,1.8,3.7,87,0.00,CLR,,0.00,WeatherDisplay:10.37,2013-09-15 08:45:00,
2013-09-15 02:53:00,51.1,47.7,30.12,ENE,68,3.4,6.3,88,0.00,CLR,,0.00,WeatherDisplay:10.37,2013-09-15 08:53:00,
2013-09-15 02:58:00,50.7,47.3,30.12,East,90,1.9,3.5,88,0.00,CLR,,0.00,WeatherDisplay:10.37,2013-09-15 08:58:00,
2013-09-15 03:03:00,50.5,47.1,30.12,NE,45,3.2,5.8,88,0.00,CLR,,0.00,WeatherDisplay:10.37,2013-09-15 09:03:00,
2013-09-15 03:08:00,50.5,47.1,30.12,ENE,68,3.1,5.8,88,0.00,CLR,,0.00,WeatherDisplay:10.37,2013-09-15 09:08:00,
2013-09-15 03:13:00,50.4,47.3,30.12,NE,45,4.1,4.7,89,0.00,CLR,,0.00,WeatherDisplay:10.37,2013-09-15 09:13:00,
2013-09-15 03:18:00,50.2,47.1,30.12,ENE,68,3.7,5.8,89,0.00,CLR,,0.00,WeatherDisplay:10.37,2013-09-15 09:18:00,
2013-09-15 03:23:00,50.0,46.9,30.12,North,360,3.6,5.8,89,0.00,CLR,,0.00,WeatherDisplay:10.37,2013-09-15 09:23:00,
2013-09-15 03:29:00,50.0,46.9,30.13,ENE,68,3.2,4.6,89,0.00,CLR,,0.00,WeatherDisplay:10.37,2013-09-15 09:29:00,
2013-09-15 03:34:00,49.8,46.7,30.13,ENE,68,4.6,5.8,89,0.00,CLR,,0.00,WeatherDisplay:10.37,2013-09-15 09:34:00,
2013-09-15 03:39:00,49.8,46.7,30.13,NNE,22,2.7,5.8,89,0.00,CLR,,0.00,WeatherDisplay:10.37,2013-09-15 09:39:00,
2013-09-15 03:44:00,50.0,46.9,30.14,NE,45,3.0,4.6,89,0.00,CLR,,0.00,WeatherDisplay:10.37,2013-09-15 09:44:00,
2013-09-15 03:49:00,50.0,46.9,30.14,South,180,2.6,5.8,89,0.00,CLR,,0.00,WeatherDisplay:10.37,2013-09-15 09:49:00,
2013-09-15 03:54:00,49.8,46.7,30.15,NE,45,2.8,3.7,89,0.00,BKN,,0.00,WeatherDisplay:10.37,2013-09-15 09:54:00,
2013-09-15 03:59:00,49.6,46.5,30.15,NNW,338,2.3,5.8,89,0.00,BKN,,0.00,WeatherDisplay:10.37,2013-09-15 09:59:00,
2013-09-15 04:04:00,49.5,46.4,30.15,ENE,68,5.4,8.1,89,0.00,BKN,,0.00,WeatherDisplay:10.37,2013-09-15 10:04:00,
2013-09-15 04:09:00,49.3,46.2,30.15,ENE,68,3.0,3.5,89,0.00,BKN,,0.00,WeatherDisplay:10.37,2013-09-15 10:09:00,
2013-09-15 04:14:00,49.1,46.0,30.15,ENE,68,1.2,3.5,89,0.00,OVC,,0.00,WeatherDisplay:10.37,2013-09-15 10:14:00,
2013-09-15 04:19:00,48.7,45.6,30.15,NE,45,2.6,3.5,89,0.00,OVC,,0.00,WeatherDisplay:10.37,2013-09-15 10:19:00,
2013-09-15 04:24:00,48.6,45.5,30.15,NE,45,4.5,5.8,89,0.00,OVC,,0.00,WeatherDisplay:10.37,2013-09-15 10:24:00,
2013-09-15 04:29:00,48.4,45.3,30.16,NNE,22,3.8,5.8,89,0.00,OVC,,0.00,WeatherDisplay:10.37,2013-09-15 10:29:00,
2013-09-15 04:34:00,48.4,45.3,30.16,NE,45,3.8,5.8,89,0.00,SCT,,0.00,WeatherDisplay:10.37,2013-09-15 10:34:00,
2013-09-15 04:39:00,48.2,45.1,30.16,ESE,112,3.6,4.6,89,0.00,SCT,,0.00,WeatherDisplay:10.37,2013-09-15 10:39:00,
2013-09-15 04:44:00,48.2,45.1,30.16,ENE,68,5.3,5.8,89,0.00,SCT,,0.00,WeatherDisplay:10.37,2013-09-15 10:44:00,
2013-09-15 04:49:00,48.2,45.1,30.16,NNE,22,5.7,8.1,89,0.00,SCT,,0.00,WeatherDisplay:10.37,2013-09-15 10:49:00,
2013-09-15 04:54:00,48.2,45.1,30.16,NE,45,2.3,6.9,89,0.00,BKN,,0.00,WeatherDisplay:10.37,2013-09-15 10:54:00,
2013-09-15 04:59:00,48.0,44.9,30.16,East,90,4.8,5.3,89,0.00,BKN,,0.00,WeatherDisplay:10.37,2013-09-15 10:59:00,
2013-09-15 05:04:00,47.8,44.7,30.17,SSE,158,5.4,6.9,89,0.00,BKN,,0.00,WeatherDisplay:10.37,2013-09-15 11:04:00,
2013-09-15 05:09:00,47.8,44.7,30.17,NE,45,1.6,4.6,89,0.00,BKN,,0.00,WeatherDisplay:10.37,2013-09-15 11:09:00,
2013-09-15 05:14:00,47.7,44.9,30.17,ENE,68,2.6,3.5,90,0.00,OVC,,0.00,WeatherDisplay:10.37,2013-09-15 11:14:00,
2013-09-15 05:19:00,47.7,44.9,30.17,ENE,68,2.7,2.7,90,0.00,OVC,,0.00,WeatherDisplay:10.37,2013-09-15 11:19:00,
2013-09-15 05:24:00,47.5,44.7,30.17,NNW,338,1.9,2.3,90,0.00,OVC,,0.00,WeatherDisplay:10.37,2013-09-15 11:24:00,
2013-09-15 05:29:00,47.3,44.5,30.17,WNW,292,3.6,3.7,90,0.00,OVC,,0.00,WeatherDisplay:10.37,2013-09-15 11:29:00,
2013-09-15 05:34:00,47.1,44.3,30.17,ENE,68,3.3,5.8,90,0.00,OVC,,0.00,WeatherDisplay:10.37,2013-09-15 11:34:00,
2013-09-15 05:39:00,47.1,44.3,30.18,NE,45,3.1,5.8,90,0.00,OVC,,0.00,WeatherDisplay:10.37,2013-09-15 11:39:00,
2013-09-15 05:44:00,46.8,44.0,30.18,ENE,68,2.4,3.5,90,0.00,OVC,,0.00,WeatherDisplay:10.37,2013-09-15 11:44:00,
2013-09-15 05:49:00,46.8,44.0,30.18,NE,45,3.0,4.6,90,0.00,OVC,,0.00,WeatherDisplay:10.37,2013-09-15 11:49:00,
2013-09-15 05:54:00,46.6,43.8,30.18,NNE,22,1.5,2.7,90,0.00,OVC,,0.00,WeatherDisplay:10.37,2013-09-15 11:54:00,
2013-09-15 05:59:00,46.6,43.8,30.18,ESE,112,2.5,3.5,90,0.00,OVC,,0.00,WeatherDisplay:10.37,2013-09-15 11:59:00,
2013-09-15 06:04:00,46.8,44.0,30.19,SE,135,2.0,3.5,90,0.00,OVC,,0.00,WeatherDisplay:10.37,2013-09-15 12:04:00,
2013-09-15 06:09:00,46.9,44.4,30.19,East,90,3.5,3.5,91,0.00,OVC,,0.00,WeatherDisplay:10.37,2013-09-15 12:09:00,
2013-09-15 06:14:00,46.9,44.4,30.19,East,90,3.0,5.8,91,0.00,OVC,,0.00,WeatherDisplay:10.37,2013-09-15 12:14:00,
2013-09-15 06:19:00,46.9,44.1,30.19,NNE,22,2.8,3.5,90,0.00,OVC,,0.00,WeatherDisplay:10.37,2013-09-15 12:19:00,
2013-09-15 06:24:00,46.9,44.1,30.19,ESE,112,3.6,4.6,90,0.00,OVC,,0.00,WeatherDisplay:10.37,2013-09-15 12:24:00,
2013-09-15 06:29:00,46.9,44.1,30.20,ENE,68,3.1,3.7,90,0.00,OVC,,0.00,WeatherDisplay:10.37,2013-09-15 12:29:00,
2013-09-15 06:34:00,47.1,44.3,30.20,NNE,22,2.1,2.7,90,0.00,OVC,,0.00,WeatherDisplay:10.37,2013-09-15 12:34:00,
2013-09-15 06:39:00,47.1,44.3,30.20,NE,45,3.2,4.2,90,0.00,OVC,,0.00,WeatherDisplay:10.37,2013-09-15 12:39:00,
2013-09-15 06:44:00,47.1,44.3,30.20,ENE,68,5.2,5.8,90,0.00,OVC,,0.00,WeatherDisplay:10.37,2013-09-15 12:44:00,
2013-09-15 06:49:00,47.1,44.3,30.20,NE,45,2.4,5.8,90,0.00,OVC,,0.00,WeatherDisplay:10.37,2013-09-15 12:49:00,
2013-09-15 06:55:00,47.1,44.3,30.20,NE,45,4.2,5.8,90,0.00,OVC,,0.00,WeatherDisplay:10.37,2013-09-15 12:55:00,
2013-09-15 07:00:00,47.1,44.3,30.20,SE,135,4.0,5.8,90,0.00,OVC,,0.00,WeatherDisplay:10.37,2013-09-15 13:00:00,
2013-09-15 07:05:00,47.1,44.3,30.20,ENE,68,3.3,3.7,90,0.00,OVC,,0.00,WeatherDisplay:10.37,2013-09-15 13:05:00,
2013-09-15 07:10:00,47.1,44.3,30.20,North,360,3.0,4.6,90,0.00,OVC,,0.00,WeatherDisplay:10.37,2013-09-15 13:10:00,
2013-09-15 07:15:00,47.1,44.3,30.20,East,90,4.7,5.8,90,0.00,OVC,,0.00,WeatherDisplay:10.37,2013-09-15 13:15:00,
2013-09-15 07:20:00,47.1,44.3,30.20,SSE,158,4.1,5.8,90,0.00,OVC,,0.00,WeatherDisplay:10.37,2013-09-15 13:20:00,
2013-09-15 07:25:00,47.1,44.3,30.20,ESE,112,3.6,4.6,90,0.00,OVC,,0.00,WeatherDisplay:10.37,2013-09-15 13:25:00,
2013-09-15 07:30:00,46.9,44.1,30.20,ENE,68,4.2,4.7,90,0.00,OVC,,0.00,WeatherDisplay:10.37,2013-09-15 13:30:00,
2013-09-15 07:35:00,46.8,43.7,30.20,NNW,338,3.4,4.6,89,0.00,OVC,,0.00,WeatherDisplay:10.37,2013-09-15 13:35:00,
2013-09-15 07:40:00,47.1,44.0,30.21,ESE,112,4.4,5.8,89,0.00,OVC,,0.00,WeatherDisplay:10.37,2013-09-15 13:40:00,
2013-09-15 07:45:00,46.9,43.8,30.21,ENE,68,4.1,4.6,89,0.00,OVC,,0.00,WeatherDisplay:10.37,2013-09-15 13:45:00,
2013-09-15 07:50:00,46.9,43.8,30.21,NNE,22,3.0,3.5,89,0.00,OVC,,0.00,WeatherDisplay:10.37,2013-09-15 13:50:00,
2013-09-15 07:55:00,46.9,43.8,30.21,ESE,112,4.7,5.8,89,0.00,OVC,,0.00,WeatherDisplay:10.37,2013-09-15 13:55:00,
2013-09-15 08:00:00,47.1,43.7,30.21,East,90,4.4,5.8,88,0.00,OVC,,0.00,WeatherDisplay:10.37,2013-09-15 14:00:00,
2013-09-15 08:05:00,47.1,43.7,30.22,ENE,68,5.6,6.9,88,0.00,OVC,,0.00,WeatherDisplay:10.37,2013-09-15 14:05:00,
2013-09-15 08:10:00,47.5,43.8,30.22,SSE,158,4.0,4.7,87,0.00,OVC,,0.00,WeatherDisplay:10.37,2013-09-15 14:10:00,
2013-09-15 08:15:00,47.7,44.0,30.22,SE,135,4.1,5.3,87,0.00,OVC,,0.00,WeatherDisplay:10.37,2013-09-15 14:15:00,
2013-09-15 08:20:00,48.0,44.0,30.22,ESE,112,3.1,4.7,86,0.00,OVC,,0.00,WeatherDisplay:10.37,2013-09-15 14:20:00,
2013-09-15 08:25:00,48.4,44.7,30.22,SSE,158,2.7,4.7,87,0.00,OVC,,0.00,WeatherDisplay:10.37,2013-09-15 14:25:00,
2013-09-15 08:30:00,48.0,44.3,30.22,NNE,22,2.8,3.7,87,0.00,OVC,,0.00,WeatherDisplay:10.37,2013-09-15 14:30:00,
2013-09-15 08:35:00,47.5,43.8,30.22,NE,45,6.3,6.9,87,0.00,OVC,,0.00,WeatherDisplay:10.37,2013-09-15 14:35:00,
2013-09-15 08:40:00,47.5,43.8,30.23,SE,135,5.4,5.8,87,0.00,OVC,,0.00,WeatherDisplay:10.37,2013-09-15 14:40:00,
2013-09-15 08:45:00,47.5,43.8,30.23,ESE,112,4.8,5.8,87,0.00,OVC,,0.00,WeatherDisplay:10.37,2013-09-15 14:45:00,
2013-09-15 08:50:00,47.7,44.0,30.23,ESE,112,5.1,6.9,87,0.00,OVC,,0.00,WeatherDisplay:10.37,2013-09-15 14:50:00,
2013-09-15 08:55:00,47.7,44.0,30.23,ESE,112,5.2,5.8,87,0.00,OVC,,0.00,WeatherDisplay:10.37,2013-09-15 14:55:00,
2013-09-15 09:00:00,47.7,43.7,30.23,ENE,68,3.2,3.5,86,0.00,OVC,,0.00,WeatherDisplay:10.37,2013-09-15 15:00:00,
2013-09-15 09:05:00,48.0,44.0,30.23,ENE,68,3.8,4.7,86,0.00,OVC,,0.00,WeatherDisplay:10.37,2013-09-15 15:05:00,
2013-09-15 09:10:00,48.2,44.2,30.23,East,90,5.4,9.2,86,0.00,OVC,,0.00,WeatherDisplay:10.37,2013-09-15 15:10:00,
2013-09-15 09:15:00,48.4,44.4,30.24,ESE,112,4.0,5.8,86,0.00,OVC,,0.00,WeatherDisplay:10.37,2013-09-15 15:15:00,
2013-09-15 09:20:00,48.6,44.3,30.24,ESE,112,5.3,5.8,85,0.00,OVC,,0.00,WeatherDisplay:10.37,2013-09-15 15:20:00,
2013-09-15 09:25:00,48.4,44.1,30.24,East,90,4.8,5.8,85,0.00,OVC,,0.00,WeatherDisplay:10.37,2013-09-15 15:25:00,
2013-09-15 09:30:00,48.2,43.9,30.24,ESE,112,4.2,4.6,85,0.00,OVC,,0.00,WeatherDisplay:10.37,2013-09-15 15:30:00,
2013-09-15 09:35:00,48.6,44.0,30.24,ESE,112,4.2,5.8,84,0.00,OVC,,0.00,WeatherDisplay:10.37,2013-09-15 15:35:00,
2013-09-15 09:40:00,48.6,44.0,30.24,SSE,158,5.6,5.8,84,0.00,OVC,,0.00,WeatherDisplay:10.37,2013-09-15 15:40:00,
2013-09-15 09:45:00,48.9,44.3,30.24,East,90,5.8,6.3,84,0.00,OVC,,0.00,WeatherDisplay:10.37,2013-09-15 15:45:00,
2013-09-15 09:50:00,49.5,44.9,30.24,ESE,112,3.7,3.7,84,0.00,OVC,,0.00,WeatherDisplay:10.37,2013-09-15 15:50:00,
2013-09-15 09:55:00,49.5,44.6,30.25,NNE,22,4.1,4.6,83,0.00,OVC,,0.00,WeatherDisplay:10.37,2013-09-15 15:55:00,
2013-09-15 10:00:00,49.5,44.2,30.25,NNE,22,5.0,5.8,82,0.00,OVC,,0.00,WeatherDisplay:10.37,2013-09-15 16:00:00,
2013-09-15 10:05:00,50.4,44.8,30.25,East,90,6.3,6.9,81,0.00,OVC,,0.00,WeatherDisplay:10.37,2013-09-15 16:05:00,
2013-09-15 10:10:00,50.4,44.5,30.25,SE,135,2.9,6.9,80,0.00,OVC,,0.00,WeatherDisplay:10.37,2013-09-15 16:10:00,
2013-09-15 10:15:00,50.9,44.6,30.25,East,90,5.5,6.9,79,0.00,OVC,,0.00,WeatherDisplay:10.37,2013-09-15 16:15:00,
2013-09-15 10:20:00,51.4,45.4,30.25,SE,135,4.1,5.8,80,0.00,OVC,,0.00,WeatherDisplay:10.37,2013-09-15 16:20:00,
2013-09-15 10:25:00,50.5,44.2,30.25,SE,135,4.1,5.8,79,0.00,OVC,,0.00,WeatherDisplay:10.37,2013-09-15 16:25:00,
2013-09-15 10:30:00,50.4,44.5,30.25,NE,45,5.9,8.1,80,0.00,OVC,,0.00,WeatherDisplay:10.37,2013-09-15 16:30:00,
2013-09-15 10:35:00,50.2,44.3,30.25,SE,135,3.1,6.8,80,0.00,OVC,,0.00,WeatherDisplay:10.37,2013-09-15 16:35:00,
2013-09-15 10:40:00,51.1,44.8,30.24,NE,45,4.8,5.8,79,0.00,OVC,,0.00,WeatherDisplay:10.37,2013-09-15 16:40:00,
2013-09-15 10:45:00,50.9,44.6,30.24,ESE,112,7.2,8.1,79,0.00,OVC,,0.00,WeatherDisplay:10.37,2013-09-15 16:45:00,
2013-09-15 10:50:00,51.6,45.0,30.24,ESE,112,4.9,5.8,78,0.00,OVC,,0.00,WeatherDisplay:10.37,2013-09-15 16:50:00,
2013-09-15 10:55:00,51.8,45.5,30.24,NE,45,5.0,10.4,79,0.00,OVC,,0.00,WeatherDisplay:10.37,2013-09-15 16:55:00,
2013-09-15 11:00:00,51.8,44.8,30.24,ENE,68,6.6,6.9,77,0.00,OVC,,0.00,WeatherDisplay:10.37,2013-09-15 17:00:00,
2013-09-15 11:05:00,52.3,45.3,30.25,ESE,112,3.3,4.6,77,0.00,SCT,,0.00,WeatherDisplay:10.37,2013-09-15 17:05:00,
2013-09-15 11:10:00,52.7,45.7,30.25,SE,135,4.6,5.8,77,0.00,SCT,,0.00,WeatherDisplay:10.37,2013-09-15 17:10:00,
2013-09-15 11:15:00,52.9,45.5,30.24,ENE,68,3.7,4.6,76,0.00,SCT,,0.00,WeatherDisplay:10.37,2013-09-15 17:15:00,
2013-09-15 11:20:00,53.2,45.8,30.24,ESE,112,6.2,8.3,76,0.00,SCT,,0.00,WeatherDisplay:10.37,2013-09-15 17:20:00,
2013-09-15 11:25:00,53.4,46.0,30.24,ENE,68,3.0,5.8,76,0.00,SCT,,0.00,WeatherDisplay:10.37,2013-09-15 17:25:00,
2013-09-15 11:30:00,53.8,46.1,30.25,SE,135,5.1,8.3,75,0.00,SCT,,0.00,WeatherDisplay:10.37,2013-09-15 17:30:00,
2013-09-15 11:35:00,53.4,45.7,30.25,ENE,68,6.0,9.2,75,0.00,SCT,,0.00,WeatherDisplay:10.37,2013-09-15 17:35:00,
2013-09-15 11:40:00,54.1,46.3,30.25,SSW,202,3.6,5.3,75,0.00,SCT,,0.00,WeatherDisplay:10.37,2013-09-15 17:40:00,
2013-09-15 11:46:00,54.7,46.2,30.25,NE,45,2.7,5.8,73,0.00,SCT,,0.00,WeatherDisplay:10.37,2013-09-15 17:46:00,
2013-09-15 11:51:00,54.5,46.0,30.24,ESE,112,4.7,4.7,73,0.00,SCT,,0.00,WeatherDisplay:10.37,2013-09-15 17:51:00,
2013-09-15 11:56:00,55.9,47.0,30.24,ESE,112,3.4,5.8,72,0.00,SCT,,0.00,WeatherDisplay:10.37,2013-09-15 17:56:00,
2013-09-15 12:01:00,56.5,47.6,30.24,SSE,158,4.4,5.8,72,0.00,CLR,,0.00,WeatherDisplay:10.37,2013-09-15 18:01:00,
2013-09-15 12:06:00,56.8,47.1,30.24,South,180,2.9,4.6,70,0.00,CLR,,0.00,WeatherDisplay:10.37,2013-09-15 18:06:00,
2013-09-15 12:11:00,56.5,46.4,30.24,SE,135,6.0,7.3,69,0.00,CLR,,0.00,WeatherDisplay:10.37,2013-09-15 18:11:00,
2013-09-15 12:16:00,57.0,47.3,30.23,ESE,112,7.1,8.8,70,0.00,CLR,,0.00,WeatherDisplay:10.37,2013-09-15 18:16:00,
2013-09-15 12:21:00,57.0,46.9,30.23,East,90,2.0,4.2,69,0.00,CLR,,0.00,WeatherDisplay:10.37,2013-09-15 18:21:00,
2013-09-15 12:26:00,57.6,47.1,30.23,ESE,112,5.6,9.2,68,0.00,CLR,,0.00,WeatherDisplay:10.37,2013-09-15 18:26:00,
2013-09-15 12:31:00,57.9,47.0,30.23,ESE,112,6.1,8.3,67,0.00,CLR,,0.00,WeatherDisplay:10.37,2013-09-15 18:31:00,
2013-09-15 12:36:00,58.3,47.4,30.23,SSE,158,6.6,6.9,67,0.00,CLR,,0.00,WeatherDisplay:10.37,2013-09-15 18:36:00,
2013-09-15 12:41:00,59.0,47.2,30.23,ESE,112,5.1,6.3,65,0.00,CLR,,0.00,WeatherDisplay:10.37,2013-09-15 18:41:00,
2013-09-15 12:46:00,58.8,46.6,30.23,ENE,68,4.8,6.9,64,0.00,CLR,,0.00,WeatherDisplay:10.37,2013-09-15 18:46:00,
2013-09-15 12:51:00,60.3,47.6,30.23,ESE,112,3.6,6.8,63,0.00,CLR,,0.00,WeatherDisplay:10.37,2013-09-15 18:51:00,
2013-09-15 12:56:00,59.4,46.8,30.23,ESE,112,3.3,5.8,63,0.00,CLR,,0.00,WeatherDisplay:10.37,2013-09-15 18:56:00,
2013-09-15 13:01:00,60.3,47.6,30.23,ESE,112,5.8,10.4,63,0.00,CLR,,0.00,WeatherDisplay:10.37,2013-09-15 19:01:00,
2013-09-15 13:06:00,59.7,47.1,30.23,SE,135,5.8,6.9,63,0.00,CLR,,0.00,WeatherDisplay:10.37,2013-09-15 19:06:00,
2013-09-15 13:11:00,60.4,47.3,30.23,ESE,112,6.3,8.1,62,0.00,CLR,,0.00,WeatherDisplay:10.37,2013-09-15 19:11:00,
2013-09-15 13:16:00,60.3,47.2,30.23,SSE,158,8.0,9.2,62,0.00,CLR,,0.00,WeatherDisplay:10.37,2013-09-15 19:16:00,
2013-09-15 13:18:00,60.3,47.6,30.23,ESE,112,7.5,9.2,63,0.00,CLR,,0.00,WeatherDisplay:10.37,2013-09-15 19:18:00,
2013-09-15 13:23:00,61.5,47.9,30.23,SE,135,4.6,5.8,61,0.00,CLR,,0.00,WeatherDisplay:10.37,2013-09-15 19:23:00,
2013-09-15 13:28:00,61.9,47.0,30.23,ESE,112,5.0,5.8,58,0.00,CLR,,0.00,WeatherDisplay:10.37,2013-09-15 19:28:00,
2013-09-15 13:33:00,61.9,47.0,30.23,SSE,158,5.6,6.9,58,0.00,CLR,,0.00,WeatherDisplay:10.37,2013-09-15 19:33:00,
2013-09-15 13:38:00,61.5,47.5,30.23,ESE,112,7.7,10.9,60,0.00,CLR,,0.00,WeatherDisplay:10.37,2013-09-15 19:38:00,
2013-09-15 13:43:00,61.3,47.3,30.22,ESE,112,8.7,10.4,60,0.00,CLR,,0.00,WeatherDisplay:10.37,2013-09-15 19:43:00,
2013-09-15 13:48:00,61.9,47.4,30.22,ESE,112,7.5,9.2,59,0.00,CLR,,0.00,WeatherDisplay:10.37,2013-09-15 19:48:00,
2013-09-15 13:53:00,61.9,46.5,30.22,ESE,112,4.8,6.9,57,0.00,CLR,,0.00,WeatherDisplay:10.37,2013-09-15 19:53:00,
2013-09-15 13:58:00,62.2,46.3,30.22,SE,135,8.4,9.9,56,0.00,CLR,,0.00,WeatherDisplay:10.37,2013-09-15 19:58:00,
2013-09-15 14:03:00,62.2,47.2,30.22,ESE,112,6.2,6.9,58,0.00,CLR,,0.00,WeatherDisplay:10.37,2013-09-15 20:03:00,
2013-09-15 14:08:00,61.9,46.0,30.22,SE,135,6.1,9.2,56,0.00,CLR,,0.00,WeatherDisplay:10.37,2013-09-15 20:08:00,
2013-09-15 14:13:00,63.0,47.5,30.22,SE,135,4.4,5.8,57,0.00,CLR,,0.00,WeatherDisplay:10.37,2013-09-15 20:13:00,
2013-09-15 14:18:00,63.1,47.6,30.22,East,90,7.2,9.4,57,0.00,CLR,,0.00,WeatherDisplay:10.37,2013-09-15 20:18:00,
2013-09-15 14:23:00,62.8,46.4,30.22,East,90,6.1,8.1,55,0.00,CLR,,0.00,WeatherDisplay:10.37,2013-09-15 20:23:00,
2013-09-15 14:28:00,63.3,47.3,30.22,ESE,112,8.1,8.1,56,0.00,CLR,,0.00,WeatherDisplay:10.37,2013-09-15 20:28:00,
2013-09-15 14:33:00,62.8,45.4,30.22,ESE,112,8.5,10.4,53,0.00,CLR,,0.00,WeatherDisplay:10.37,2013-09-15 20:33:00,
2013-09-15 14:38:00,62.8,45.9,30.22,SE,135,6.5,6.9,54,0.00,CLR,,0.00,WeatherDisplay:10.37,2013-09-15 20:38:00,
2013-09-15 14:43:00,63.0,44.6,30.21,SE,135,9.1,10.9,51,0.00,CLR,,0.00,WeatherDisplay:10.37,2013-09-15 20:43:00,
2013-09-15 14:48:00,62.8,45.9,30.21,SE,135,8.5,10.4,54,0.00,CLR,,0.00,WeatherDisplay:10.37,2013-09-15 20:48:00,
2013-09-15 14:53:00,63.0,45.1,30.21,ESE,112,6.3,8.1,52,0.00,CLR,,0.00,WeatherDisplay:10.37,2013-09-15 20:53:00,
2013-09-15 14:58:00,63.3,44.9,30.21,SE,135,8.5,9.4,51,0.00,CLR,,0.00,WeatherDisplay:10.37,2013-09-15 20:58:00,
2013-09-15 15:03:00,63.1,45.7,30.21,ESE,112,4.9,6.3,53,0.00,CLR,,0.00,WeatherDisplay:10.37,2013-09-15 21:03:00,
2013-09-15 15:08:00,63.7,46.2,30.21,ESE,112,6.2,7.3,53,0.00,CLR,,0.00,WeatherDisplay:10.37,2013-09-15 21:08:00,
2013-09-15 15:13:00,63.5,46.1,30.21,ESE,112,5.8,5.8,53,0.00,CLR,,0.00,WeatherDisplay:10.37,2013-09-15 21:13:00,
2013-09-15 15:18:00,63.5,46.1,30.21,ESE,112,5.8,5.8,53,0.00,CLR,,0.00,WeatherDisplay:10.37,2013-09-15 21:18:00,
2013-09-15 15:23:00,63.3,45.4,30.21,ESE,112,5.1,5.8,52,0.00,CLR,,0.00,WeatherDisplay:10.37,2013-09-15 21:23:00,
2013-09-15 15:28:00,63.5,45.6,30.21,ESE,112,10.6,11.5,52,0.00,CLR,,0.00,WeatherDisplay:10.37,2013-09-15 21:28:00,
2013-09-15 15:33:00,63.5,46.1,30.21,ESE,112,4.7,5.8,53,0.00,CLR,,0.00,WeatherDisplay:10.37,2013-09-15 21:33:00,
2013-09-15 15:38:00,64.0,46.5,30.21,SE,135,5.8,6.9,53,0.00,CLR,,0.00,WeatherDisplay:10.37,2013-09-15 21:38:00,
2013-09-15 15:43:00,64.2,46.2,30.21,SE,135,9.7,10.4,52,0.00,CLR,,0.00,WeatherDisplay:10.37,2013-09-15 21:43:00,
2013-09-15 15:48:00,63.7,46.7,30.21,ESE,112,6.9,10.4,54,0.00,CLR,,0.00,WeatherDisplay:10.37,2013-09-15 21:48:00,
2013-09-15 15:53:00,63.9,46.9,30.20,SE,135,7.7,8.3,54,0.00,CLR,,0.00,WeatherDisplay:10.37,2013-09-15 21:53:00,
2013-09-15 15:58:00,64.0,46.5,30.20,SE,135,7.4,9.2,53,0.00,CLR,,0.00,WeatherDisplay:10.37,2013-09-15 21:58:00,
2013-09-15 16:03:00,64.2,46.2,30.21,SSE,158,4.9,8.1,52,0.00,CLR,,0.00,WeatherDisplay:10.37,2013-09-15 22:03:00,
2013-09-15 16:08:00,63.9,46.4,30.21,SE,135,6.0,8.3,53,0.00,CLR,,0.00,WeatherDisplay:10.37,2013-09-15 22:08:00,
2013-09-15 16:13:00,64.6,47.1,30.21,SE,135,5.9,8.3,53,0.00,CLR,,0.00,WeatherDisplay:10.37,2013-09-15 22:13:00,
2013-09-15 16:18:00,64.2,47.2,30.20,SE,135,6.2,8.1,54,0.00,CLR,,0.00,WeatherDisplay:10.37,2013-09-15 22:18:00,
2013-09-15 16:23:00,64.4,46.9,30.20,ESE,112,8.1,9.2,53,0.00,CLR,,0.00,WeatherDisplay:10.37,2013-09-15 22:23:00,
2013-09-15 16:28:00,64.0,46.5,30.20,ESE,112,7.6,10.9,53,0.00,CLR,,0.00,WeatherDisplay:10.37,2013-09-15 22:28:00,
2013-09-15 16:33:00,64.0,45.0,30.20,ESE,112,8.8,9.2,50,0.00,CLR,,0.00,WeatherDisplay:10.37,2013-09-15 22:33:00,
2013-09-15 16:38:00,64.0,46.5,30.20,ESE,112,7.9,9.4,53,0.00,CLR,,0.00,WeatherDisplay:10.37,2013-09-15 22:38:00,
2013-09-15 16:44:00,63.9,46.9,30.20,ESE,112,5.9,6.9,54,0.00,CLR,,0.00,WeatherDisplay:10.37,2013-09-15 22:44:00,
2013-09-15 16:49:00,63.9,45.9,30.20,ESE,112,8.4,11.5,52,0.00,CLR,,0.00,WeatherDisplay:10.37,2013-09-15 22:49:00,
2013-09-15 16:54:00,63.5,45.6,30.19,SE,135,6.2,6.9,52,0.00,CLR,,0.00,WeatherDisplay:10.37,2013-09-15 22:54:00,
2013-09-15 16:59:00,63.9,46.4,30.19,SE,135,6.9,9.2,53,0.00,CLR,,0.00,WeatherDisplay:10.37,2013-09-15 22:59:00,
2013-09-15 17:04:00,63.9,45.4,30.19,ESE,112,8.9,10.4,51,0.00,CLR,,0.00,WeatherDisplay:10.37,2013-09-15 23:04:00,
2013-09-15 17:09:00,63.9,45.9,30.19,SE,135,6.2,6.9,52,0.00,CLR,,0.00,WeatherDisplay:10.37,2013-09-15 23:09:00,
2013-09-15 17:14:00,63.9,45.9,30.19,SE,135,6.3,6.3,52,0.00,CLR,,0.00,WeatherDisplay:10.37,2013-09-15 23:14:00,
2013-09-15 17:19:00,63.7,46.7,30.19,South,180,5.8,6.9,54,0.00,CLR,,0.00,WeatherDisplay:10.37,2013-09-15 23:19:00,
2013-09-15 17:24:00,63.5,47.0,30.19,East,90,10.1,12.7,55,0.00,CLR,,0.00,WeatherDisplay:10.37,2013-09-15 23:24:00,
2013-09-15 17:29:00,63.3,46.4,30.19,ESE,112,5.8,10.4,54,0.00,CLR,,0.00,WeatherDisplay:10.37,2013-09-15 23:29:00,
2013-09-15 17:34:00,63.3,46.9,30.19,SSE,158,9.0,11.5,55,0.00,CLR,,0.00,WeatherDisplay:10.37,2013-09-15 23:34:00,
2013-09-15 17:39:00,63.3,46.9,30.19,ESE,112,8.7,10.4,55,0.00,CLR,,0.00,WeatherDisplay:10.37,2013-09-15 23:39:00,
2013-09-15 17:44:00,63.1,46.7,30.19,ESE,112,5.8,6.9,55,0.00,CLR,,0.00,WeatherDisplay:10.37,2013-09-15 23:44:00,
2013-09-15 17:49:00,63.0,46.6,30.19,ESE,112,10.0,10.4,55,0.00,CLR,,0.00,WeatherDisplay:10.37,2013-09-15 23:49:00,
2013-09-15 17:54:00,62.8,46.4,30.19,SE,135,7.1,8.1,55,0.00,CLR,,0.00,WeatherDisplay:10.37,2013-09-15 23:54:00,
2013-09-15 17:59:00,62.6,46.7,30.19,ESE,112,6.4,6.9,56,0.00,CLR,,0.00,WeatherDisplay:10.37,2013-09-15 23:59:00,
2013-09-15 18:04:00,62.4,46.5,30.19,East,90,6.8,8.1,56,0.00,CLR,,0.00,WeatherDisplay:10.37,2013-09-16 00:04:00,
2013-09-15 18:09:00,62.4,47.0,30.19,ESE,112,6.3,6.3,57,0.00,CLR,,0.00,WeatherDisplay:10.37,2013-09-16 00:09:00,
2013-09-15 18:14:00,62.2,46.8,30.19,ESE,112,7.8,9.2,57,0.00,CLR,,0.00,WeatherDisplay:10.37,2013-09-16 00:14:00,
2013-09-15 18:19:00,62.1,46.2,30.19,ESE,112,5.9,6.9,56,0.00,CLR,,0.00,WeatherDisplay:10.37,2013-09-16 00:19:00,
2013-09-15 18:24:00,61.9,46.5,30.19,ESE,112,7.8,8.1,57,0.00,CLR,,0.00,WeatherDisplay:10.37,2013-09-16 00:24:00,
2013-09-15 18:29:00,61.5,47.0,30.19,ESE,112,4.5,5.8,59,0.00,CLR,,0.00,WeatherDisplay:10.37,2013-09-16 00:29:00,
2013-09-15 18:35:00,61.3,47.3,30.19,ESE,112,5.3,6.9,60,0.00,CLR,,0.00,WeatherDisplay:10.37,2013-09-16 00:35:00,
2013-09-15 18:40:00,61.0,47.0,30.18,ESE,112,5.1,5.8,60,0.00,CLR,,0.00,WeatherDisplay:10.37,2013-09-16 00:40:00,
2013-09-15 18:45:00,60.6,47.1,30.18,East,90,4.3,4.7,61,0.00,CLR,,0.00,WeatherDisplay:10.37,2013-09-16 00:45:00,
2013-09-15 18:50:00,60.3,47.2,30.18,SSE,158,6.1,6.1,62,0.00,CLR,,0.00,WeatherDisplay:10.37,2013-09-16 00:50:00,
2013-09-15 18:55:00,59.9,47.7,30.18,SE,135,4.6,5.8,64,0.00,CLR,,0.00,WeatherDisplay:10.37,2013-09-16 00:55:00,
2013-09-15 19:00:00,59.5,47.7,30.18,SSE,158,4.1,5.8,65,0.00,CLR,,0.00,WeatherDisplay:10.37,2013-09-16 01:00:00,
2013-09-15 19:05:00,59.2,47.8,30.18,ESE,112,4.3,4.6,66,0.00,CLR,,0.00,WeatherDisplay:10.37,2013-09-16 01:05:00,
2013-09-15 19:10:00,58.5,48.0,30.18,SE,135,3.4,3.7,68,0.00,CLR,,0.00,WeatherDisplay:10.37,2013-09-16 01:10:00,
2013-09-15 19:15:00,57.9,47.8,30.18,ESE,112,4.7,6.3,69,0.00,CLR,,0.00,WeatherDisplay:10.37,2013-09-16 01:15:00,
2013-09-15 19:20:00,57.6,47.5,30.18,SE,135,4.9,5.8,69,0.00,CLR,,0.00,WeatherDisplay:10.37,2013-09-16 01:20:00,
2013-09-15 19:25:00,57.2,47.5,30.18,ESE,112,5.3,5.8,70,0.00,CLR,,0.00,WeatherDisplay:10.37,2013-09-16 01:25:00,
2013-09-15 19:30:00,57.0,47.3,30.18,ESE,112,5.1,5.8,70,0.00,CLR,,0.00,WeatherDisplay:10.37,2013-09-16 01:30:00,
2013-09-15 19:35:00,56.8,47.5,30.18,ESE,112,5.2,5.8,71,0.00,CLR,,0.00,WeatherDisplay:10.37,2013-09-16 01:35:00,
2013-09-15 19:40:00,56.5,47.2,30.18,ESE,112,3.9,5.8,71,0.00,CLR,,0.00,WeatherDisplay:10.37,2013-09-16 01:40:00,
2013-09-15 19:46:00,55.8,46.9,30.18,ESE,112,4.2,5.8,72,0.00,CLR,,0.00,WeatherDisplay:10.37,2013-09-16 01:46:00,
2013-09-15 19:51:00,55.4,46.9,30.18,ESE,112,2.8,3.5,73,0.00,CLR,,0.00,WeatherDisplay:10.37,2013-09-16 01:51:00,
2013-09-15 19:56:00,55.0,46.9,30.18,SE,135,3.5,5.8,74,0.00,CLR,,0.00,WeatherDisplay:10.37,2013-09-16 01:56:00,
2013-09-15 20:01:00,54.7,46.9,30.18,SE,135,4.4,5.8,75,0.00,CLR,,0.00,WeatherDisplay:10.37,2013-09-16 02:01:00,
2013-09-15 20:06:00,54.3,46.9,30.19,SE,135,4.1,4.6,76,0.00,CLR,,0.00,WeatherDisplay:10.37,2013-09-16 02:06:00,
2013-09-15 20:11:00,54.0,46.6,30.19,SSE,158,4.6,5.8,76,0.00,CLR,,0.00,WeatherDisplay:10.37,2013-09-16 02:11:00,
2013-09-15 20:16:00,53.8,46.4,30.19,ESE,112,5.6,5.8,76,0.00,CLR,,0.00,WeatherDisplay:10.37,2013-09-16 02:16:00,
2013-09-15 20:21:00,53.2,46.2,30.19,SE,135,5.0,5.8,77,0.00,CLR,,0.00,WeatherDisplay:10.37,2013-09-16 02:21:00,
2013-09-15 20:26:00,53.1,46.1,30.19,ESE,112,5.3,5.8,77,0.00,CLR,,0.00,WeatherDisplay:10.37,2013-09-16 02:26:00,
2013-09-15 20:31:00,53.1,46.1,30.19,ESE,112,5.8,5.8,77,0.00,CLR,,0.00,WeatherDisplay:10.37,2013-09-16 02:31:00,
2013-09-15 20:36:00,53.1,46.4,30.19,ESE,112,5.2,6.9,78,0.00,CLR,,0.00,WeatherDisplay:10.37,2013-09-16 02:36:00,
2013-09-15 20:41:00,53.1,46.4,30.19,ESE,112,4.5,5.8,78,0.00,CLR,,0.00,WeatherDisplay:10.37,2013-09-16 02:41:00,
2013-09-15 20:46:00,53.1,46.4,30.19,ESE,112,4.2,4.7,78,0.00,CLR,,0.00,WeatherDisplay:10.37,2013-09-16 02:46:00,
2013-09-15 20:51:00,53.1,46.4,30.19,SE,135,4.8,5.8,78,0.00,CLR,,0.00,WeatherDisplay:10.37,2013-09-16 02:51:00,
2013-09-15 20:56:00,52.9,46.2,30.19,East,90,4.9,5.8,78,0.00,CLR,,0.00,WeatherDisplay:10.37,2013-09-16 02:56:00,
2013-09-15 21:01:00,52.7,46.0,30.19,SSE,158,3.4,6.9,78,0.00,CLR,,0.00,WeatherDisplay:10.37,2013-09-16 03:01:00,
2013-09-15 21:06:00,52.3,46.0,30.19,SSE,158,3.9,4.6,79,0.00,CLR,,0.00,WeatherDisplay:10.37,2013-09-16 03:06:00,
2013-09-15 21:11:00,52.0,45.7,30.19,SE,135,4.2,4.6,79,0.00,CLR,,0.00,WeatherDisplay:10.37,2013-09-16 03:11:00,
2013-09-15 21:16:00,51.8,45.8,30.19,ESE,112,4.3,4.6,80,0.00,CLR,,0.00,WeatherDisplay:10.37,2013-09-16 03:16:00,
2013-09-15 21:22:00,51.8,45.8,30.19,ESE,112,3.5,4.6,80,0.00,CLR,,0.00,WeatherDisplay:10.37,2013-09-16 03:22:00,
2013-09-15 21:27:00,51.4,45.8,30.19,ESE,112,2.4,3.7,81,0.00,CLR,,0.00,WeatherDisplay:10.37,2013-09-16 03:27:00,
2013-09-15 21:32:00,51.1,45.8,30.19,ESE,112,2.8,4.6,82,0.00,CLR,,0.00,WeatherDisplay:10.37,2013-09-16 03:32:00,
2013-09-15 21:37:00,51.1,45.8,30.19,SE,135,3.6,4.6,82,0.00,CLR,,0.00,WeatherDisplay:10.37,2013-09-16 03:37:00,
2013-09-15 21:42:00,50.9,45.9,30.19,SE,135,4.0,5.8,83,0.00,CLR,,0.00,WeatherDisplay:10.37,2013-09-16 03:42:00,
2013-09-15 21:47:00,50.7,45.7,30.19,ESE,112,3.9,4.6,83,0.00,CLR,,0.00,WeatherDisplay:10.37,2013-09-16 03:47:00,
2013-09-15 21:52:00,50.7,45.7,30.18,SE,135,5.3,6.9,83,0.00,CLR,,0.00,WeatherDisplay:10.37,2013-09-16 03:52:00,
2013-09-15 21:57:00,50.5,45.5,30.18,SSE,158,3.5,3.5,83,0.00,CLR,,0.00,WeatherDisplay:10.37,2013-09-16 03:57:00,
2013-09-15 22:01:00,50.2,45.2,30.18,ESE,112,4.6,5.3,83,0.00,CLR,,0.00,WeatherDisplay:10.37,2013-09-16 04:01:00,
2013-09-15 22:02:00,50.2,45.2,30.18,SE,135,3.9,5.8,83,0.00,CLR,,0.00,WeatherDisplay:10.37,2013-09-16 04:02:00,
2013-09-15 22:07:00,50.0,45.0,30.18,SE,135,4.6,4.7,83,0.00,CLR,,0.00,WeatherDisplay:10.37,2013-09-16 04:07:00,
2013-09-15 22:12:00,50.2,45.2,30.18,SE,135,4.0,5.8,83,0.00,CLR,,0.00,WeatherDisplay:10.37,2013-09-16 04:12:00,
2013-09-15 22:17:00,50.4,45.7,30.18,SE,135,1.9,3.5,84,0.00,CLR,,0.00,WeatherDisplay:10.37,2013-09-16 04:17:00,
2013-09-15 22:22:00,50.4,45.7,30.18,SSE,158,3.4,4.6,84,0.00,CLR,,0.00,WeatherDisplay:10.37,2013-09-16 04:22:00,
2013-09-15 22:27:00,50.4,45.7,30.18,SE,135,2.7,3.5,84,0.00,CLR,,0.00,WeatherDisplay:10.37,2013-09-16 04:27:00,
2013-09-15 22:32:00,50.2,45.6,30.18,East,90,2.8,4.6,84,0.00,CLR,,0.00,WeatherDisplay:10.37,2013-09-16 04:32:00,
2013-09-15 22:37:00,50.0,45.4,30.18,ENE,68,2.5,3.5,84,0.00,CLR,,0.00,WeatherDisplay:10.37,2013-09-16 04:37:00,
2013-09-15 22:42:00,49.8,45.2,30.18,ENE,68,2.2,2.7,84,0.00,CLR,,0.00,WeatherDisplay:10.37,2013-09-16 04:42:00,
2013-09-15 22:47:00,49.5,45.2,30.18,SE,135,2.5,3.5,85,0.00,CLR,,0.00,WeatherDisplay:10.37,2013-09-16 04:47:00,
2013-09-15 22:52:00,49.5,45.2,30.18,SE,135,2.8,3.5,85,0.00,CLR,,0.00,WeatherDisplay:10.37,2013-09-16 04:52:00,
2013-09-15 22:57:00,49.5,45.2,30.18,East,90,1.7,2.7,85,0.00,CLR,,0.00,WeatherDisplay:10.37,2013-09-16 04:57:00,
2013-09-15 23:02:00,49.1,44.8,30.18,ENE,68,1.7,2.3,85,0.00,CLR,,0.00,WeatherDisplay:10.37,2013-09-16 05:02:00,
2013-09-15 23:07:00,48.9,44.6,30.18,ESE,112,3.3,4.2,85,0.00,CLR,,0.00,WeatherDisplay:10.37,2013-09-16 05:07:00,
2013-09-15 23:12:00,49.1,45.1,30.18,ESE,112,4.3,5.8,86,0.00,CLR,,0.00,WeatherDisplay:10.37,2013-09-16 05:12:00,
2013-09-15 23:17:00,49.5,45.5,30.18,ESE,112,4.3,4.6,86,0.00,CLR,,0.00,WeatherDisplay:10.37,2013-09-16 05:17:00,
2013-09-15 23:22:00,49.8,45.5,30.18,SE,135,3.9,5.8,85,0.00,CLR,,0.00,WeatherDisplay:10.37,2013-09-16 05:22:00,
2013-09-15 23:27:00,49.8,45.5,30.18,ESE,112,5.3,6.3,85,0.00,CLR,,0.00,WeatherDisplay:10.37,2013-09-16 05:27:00,
2013-09-15 23:32:00,49.6,45.3,30.18,ESE,112,4.3,5.8,85,0.00,CLR,,0.00,WeatherDisplay:10.37,2013-09-16 05:32:00,
2013-09-15 23:37:00,49.3,45.0,30.18,SE,135,4.7,5.8,85,0.00,CLR,,0.00,WeatherDisplay:10.37,2013-09-16 05:37:00,
2013-09-15 23:42:00,49.1,44.8,30.17,ESE,112,3.6,3.7,85,0.00,CLR,,0.00,WeatherDisplay:10.37,2013-09-16 05:42:00,
2013-09-15 23:47:00,49.1,45.1,30.17,SE,135,4.6,5.8,86,0.00,CLR,,0.00,WeatherDisplay:10.37,2013-09-16 05:47:00,
2013-09-15 23:52:00,48.9,44.9,30.17,SSE,158,3.7,4.6,86,0.00,CLR,,0.00,WeatherDisplay:10.37,2013-09-16 05:52:00,
2013-09-15 23:58:00,48.7,44.7,30.17,ESE,112,2.4,3.5,86,0.00,CLR,,0.00,WeatherDisplay:10.37,2013-09-16 05:58:00,